createdAt,value
2019-03-23T00:00:02.186Z,7.03
2019-03-23T00:03:10.932Z,7.70
2019-03-23T00:06:30.221Z,6.83
2019-03-23T00:09:30.319Z,7.40
2019-03-23T00:12:38.930Z,7.10
2019-03-23T00:15:47.137Z,6.90
2019-03-23T00:18:55.532Z,6.53
2019-03-23T00:22:04.357Z,6.87
2019-03-23T00:25:12.651Z,6.10
2019-03-23T00:28:21.218Z,6.47
2019-03-23T00:31:29.472Z,6.17
2019-03-23T00:34:37.851Z,7.43
2019-03-23T00:37:46.756Z,6.90
2019-03-23T00:40:55.235Z,5.87
2019-03-23T00:44:04.135Z,6.23
2019-03-23T00:47:13.286Z,5.33
2019-03-23T00:50:21.487Z,6.97
2019-03-23T00:53:30.192Z,5.70
2019-03-23T00:56:38.410Z,5.80
2019-03-23T00:59:46.559Z,5.60
2019-03-23T01:02:55.177Z,5.67
2019-03-23T01:06:03.728Z,6.00
2019-03-23T01:09:12.239Z,5.83
2019-03-23T01:12:20.915Z,5.33
2019-03-23T01:15:29.249Z,6.50
2019-03-23T01:18:37.531Z,5.87
2019-03-23T01:21:46.048Z,5.57
2019-03-23T01:24:54.277Z,5.87
2019-03-23T01:28:02.563Z,5.67
2019-03-23T01:31:11.288Z,6.03
2019-03-23T01:34:20.033Z,4.50
2019-03-23T01:37:28.397Z,5.40
2019-03-23T01:40:37.026Z,5.03
2019-03-23T01:43:45.502Z,4.33
2019-03-23T01:46:53.741Z,5.00
2019-03-23T01:50:02.280Z,5.17
2019-03-23T01:53:10.704Z,4.90
2019-03-23T01:56:18.979Z,4.23
2019-03-23T01:59:27.193Z,5.00
2019-03-23T02:02:35.436Z,4.33
2019-03-23T02:05:43.716Z,4.90
2019-03-23T02:08:51.920Z,4.33
2019-03-23T02:12:00.036Z,4.70
2019-03-23T02:15:09.881Z,5.20
2019-03-23T02:18:18.094Z,4.80
2019-03-23T02:21:26.541Z,4.40
2019-03-23T02:24:35.006Z,4.57
2019-03-23T02:27:43.535Z,4.53
2019-03-23T02:30:51.752Z,4.00
2019-03-23T02:33:59.934Z,4.07
2019-03-23T02:37:08.394Z,4.77
2019-03-23T02:40:16.783Z,3.70
2019-03-23T02:43:25.233Z,4.00
2019-03-23T02:46:33.418Z,4.27
2019-03-23T02:49:41.382Z,3.87
2019-03-23T02:52:49.566Z,4.47
2019-03-23T02:55:57.658Z,5.03
2019-03-23T02:59:05.969Z,4.70
2019-03-23T03:02:14.390Z,4.13
2019-03-23T03:05:22.670Z,3.93
2019-03-23T03:08:31.014Z,4.60
2019-03-23T03:11:39.061Z,4.53
2019-03-23T03:14:47.024Z,5.07
2019-03-23T03:17:55.242Z,5.17
2019-03-23T03:21:03.890Z,4.53
2019-03-23T03:24:12.303Z,5.23
2019-03-23T03:27:20.613Z,3.83
2019-03-23T03:30:29.092Z,4.40
2019-03-23T03:33:37.158Z,4.87
2019-03-23T03:36:45.235Z,3.80
2019-03-23T03:39:53.394Z,4.17
2019-03-23T03:43:01.900Z,4.00
2019-03-23T03:46:09.968Z,4.23
2019-03-23T03:49:18.187Z,3.97
2019-03-23T03:52:26.251Z,4.40
2019-03-23T03:55:34.399Z,4.27
2019-03-23T03:58:42.484Z,3.93
2019-03-23T04:01:50.552Z,3.60
2019-03-23T04:04:58.925Z,4.00
2019-03-23T04:08:11.699Z,3.83
2019-03-23T04:11:16.984Z,3.77
2019-03-23T04:14:24.951Z,4.13
2019-03-23T04:17:33.157Z,4.10
2019-03-23T04:20:41.444Z,4.30
2019-03-23T04:23:49.601Z,4.17
2019-03-23T04:26:57.703Z,3.70
2019-03-23T04:30:07.816Z,4.30
2019-03-23T04:33:16.464Z,3.67
2019-03-23T04:36:24.688Z,4.40
2019-03-23T04:39:32.985Z,4.17
2019-03-23T04:42:41.188Z,3.10
2019-03-23T04:45:49.354Z,4.23
2019-03-23T04:48:58.041Z,3.57
2019-03-23T04:52:06.216Z,3.97
2019-03-23T04:55:14.852Z,2.73
2019-03-23T04:58:22.928Z,4.00
2019-03-23T05:01:31.204Z,3.30
2019-03-23T05:04:39.279Z,4.20
2019-03-23T05:07:47.251Z,3.50
2019-03-23T05:10:57.049Z,3.47
2019-03-23T05:14:05.387Z,4.13
2019-03-23T05:17:13.493Z,3.60
2019-03-23T05:20:27.978Z,3.70
2019-03-23T05:23:38.268Z,3.30
2019-03-23T05:26:46.491Z,3.43
2019-03-23T05:29:54.517Z,3.60
2019-03-23T05:33:02.840Z,3.60
2019-03-23T05:36:12.499Z,3.57
2019-03-23T05:39:21.343Z,4.00
2019-03-23T05:42:29.596Z,3.80
2019-03-23T05:45:37.848Z,4.00
2019-03-23T05:48:46.090Z,4.40
2019-03-23T05:51:54.662Z,4.23
2019-03-23T05:55:03.155Z,3.67
2019-03-23T05:58:11.724Z,3.30
2019-03-23T06:01:19.690Z,3.37
2019-03-23T06:04:27.663Z,3.03
2019-03-23T06:07:35.901Z,3.50
2019-03-23T06:10:43.876Z,4.50
2019-03-23T06:13:52.210Z,4.97
2019-03-23T06:17:00.911Z,6.43
2019-03-23T06:20:09.415Z,4.77
2019-03-23T06:23:17.670Z,4.17
2019-03-23T06:26:26.181Z,3.70
2019-03-23T06:29:34.970Z,3.03
2019-03-23T06:32:43.176Z,2.90
2019-03-23T06:35:51.510Z,3.53
2019-03-23T06:39:05.417Z,3.30
2019-03-23T06:42:10.804Z,3.23
2019-03-23T06:45:19.338Z,3.00
2019-03-23T06:48:27.411Z,2.67
2019-03-23T06:51:36.363Z,2.73
2019-03-23T06:54:44.836Z,2.20
2019-03-23T06:57:53.096Z,2.80
2019-03-23T07:01:01.282Z,2.73
2019-03-23T07:04:09.477Z,2.47
2019-03-23T07:07:17.797Z,2.57
2019-03-23T07:10:26.009Z,2.83
2019-03-23T07:13:34.148Z,3.37
2019-03-23T07:16:42.662Z,3.07
2019-03-23T07:19:50.890Z,3.07
2019-03-23T07:26:08.066Z,3.00
2019-03-23T07:29:17.075Z,3.10
2019-03-23T07:32:25.853Z,3.20
2019-03-23T07:35:34.388Z,3.20
2019-03-23T07:38:43.370Z,3.17
2019-03-23T07:41:51.817Z,4.23
2019-03-23T07:45:00.362Z,3.90
2019-03-23T07:48:09.566Z,3.57
2019-03-23T07:51:17.880Z,3.37
2019-03-23T07:54:26.771Z,3.77
2019-03-23T07:57:36.398Z,3.53
2019-03-23T08:00:44.818Z,3.20
2019-03-23T08:03:53.877Z,3.77
2019-03-23T08:07:02.554Z,3.13
2019-03-23T08:10:23.009Z,3.03
2019-03-23T08:13:31.647Z,3.83
2019-03-23T08:16:40.114Z,3.97
2019-03-23T08:19:48.469Z,3.70
2019-03-23T08:22:58.061Z,3.90
2019-03-23T08:26:06.627Z,4.30
2019-03-23T08:29:14.820Z,4.23
2019-03-23T08:32:22.928Z,3.97
2019-03-23T08:35:31.004Z,4.97
2019-03-23T08:38:38.980Z,4.80
2019-03-23T08:41:47.991Z,6.13
2019-03-23T08:44:56.519Z,5.90
2019-03-23T08:48:05.134Z,7.53
2019-03-23T08:51:13.531Z,6.13
2019-03-23T08:54:22.662Z,6.70
2019-03-23T08:57:31.270Z,6.50
2019-03-23T09:00:40.032Z,6.53
2019-03-23T09:03:52.300Z,7.67
2019-03-23T09:06:57.894Z,7.97
2019-03-23T09:10:07.150Z,8.63
2019-03-23T09:13:15.728Z,8.80
2019-03-23T09:16:23.948Z,7.97
2019-03-23T09:19:32.908Z,8.47
2019-03-23T09:22:41.763Z,8.60
2019-03-23T09:25:50.547Z,8.93
2019-03-23T09:28:59.067Z,8.50
2019-03-23T09:32:07.583Z,8.70
2019-03-23T09:35:15.722Z,9.40
2019-03-23T09:38:25.045Z,8.77
2019-03-23T09:41:33.552Z,9.90
2019-03-23T09:44:41.868Z,10.50
2019-03-23T09:47:50.521Z,9.73
2019-03-23T09:50:59.127Z,10.47
2019-03-23T09:54:08.533Z,9.20
2019-03-23T09:57:17.401Z,9.27
2019-03-23T10:00:26.328Z,10.13
2019-03-23T10:03:34.630Z,9.90
2019-03-23T10:06:43.759Z,9.97
2019-03-23T10:09:53.699Z,10.87
2019-03-23T10:13:02.244Z,10.37
2019-03-23T10:16:10.296Z,10.20
2019-03-23T10:19:20.335Z,9.90
2019-03-23T10:22:28.429Z,9.60
2019-03-23T10:25:37.092Z,11.57
2019-03-23T10:28:45.622Z,8.87
2019-03-23T10:31:55.796Z,9.47
2019-03-23T10:35:06.154Z,10.10
2019-03-23T10:38:14.463Z,10.37
2019-03-23T10:41:24.231Z,9.10
2019-03-23T10:44:33.604Z,9.90
2019-03-23T10:47:42.200Z,9.13
2019-03-23T10:50:50.828Z,8.97
2019-03-23T10:54:04.036Z,8.87
2019-03-23T10:57:13.245Z,9.43
2019-03-23T11:00:22.139Z,10.07
2019-03-23T11:03:31.766Z,9.00
2019-03-23T11:06:40.259Z,8.60
2019-03-23T11:09:48.830Z,7.77
2019-03-23T11:12:57.440Z,7.77
2019-03-23T11:16:05.847Z,8.73
2019-03-23T11:19:14.476Z,9.53
2019-03-23T11:22:22.623Z,8.73
2019-03-23T11:25:30.980Z,8.83
2019-03-23T11:28:39.646Z,7.90
2019-03-23T11:31:47.922Z,8.53
2019-03-23T11:34:56.577Z,8.57
2019-03-23T11:38:05.126Z,9.13
2019-03-23T11:41:13.530Z,10.03
2019-03-23T11:44:22.171Z,9.77
2019-03-23T11:47:31.128Z,9.13
2019-03-23T11:50:39.987Z,10.33
2019-03-23T11:53:48.694Z,10.53
2019-03-23T11:56:57.838Z,11.83
2019-03-23T12:00:10.073Z,9.97
2019-03-23T12:03:18.946Z,11.57
2019-03-23T12:06:27.681Z,10.57
2019-03-23T12:09:36.321Z,10.13
2019-03-23T12:12:44.557Z,10.97
2019-03-23T12:15:53.066Z,10.30
2019-03-23T12:19:01.616Z,8.87
2019-03-23T12:22:10.392Z,9.37
2019-03-23T12:25:18.657Z,9.23
2019-03-23T12:28:27.168Z,8.80
2019-03-23T12:31:35.761Z,8.97
2019-03-23T12:34:44.152Z,8.80
2019-03-23T12:37:58.640Z,9.83
2019-03-23T12:41:18.487Z,9.57
2019-03-23T12:44:18.223Z,9.93
2019-03-23T12:47:27.250Z,9.40
2019-03-23T12:50:36.176Z,9.90
2019-03-23T12:53:44.876Z,11.60
2019-03-23T12:56:54.217Z,11.87
2019-03-23T13:00:03.704Z,12.07
2019-03-23T13:03:11.959Z,12.63
2019-03-23T13:06:20.116Z,12.50
2019-03-23T13:09:28.727Z,13.13
2019-03-23T13:12:37.984Z,12.50
2019-03-23T13:15:46.393Z,12.70
2019-03-23T13:18:55.173Z,11.60
2019-03-23T13:22:03.997Z,13.83
2019-03-23T13:25:12.296Z,13.77
2019-03-23T13:28:20.971Z,12.40
2019-03-23T13:31:29.540Z,12.70
2019-03-23T13:34:37.896Z,12.27
2019-03-23T13:37:47.609Z,13.40
2019-03-23T13:40:56.603Z,12.63
2019-03-23T13:44:05.841Z,12.77
2019-03-23T13:47:17.235Z,12.23
2019-03-23T13:50:29.599Z,12.87
2019-03-23T13:53:38.126Z,11.77
2019-03-23T13:56:46.594Z,11.17
2019-03-23T13:59:55.443Z,11.70
2019-03-23T14:03:04.139Z,13.23
2019-03-23T14:06:13.004Z,12.63
2019-03-23T14:09:21.642Z,13.10
2019-03-23T14:12:30.421Z,13.20
2019-03-23T14:15:38.763Z,12.17
2019-03-23T14:18:47.562Z,13.20
2019-03-23T14:21:57.008Z,12.70
2019-03-23T14:25:06.637Z,13.13
2019-03-23T14:28:15.020Z,13.90
2019-03-23T14:31:24.570Z,14.03
2019-03-23T14:34:32.933Z,13.67
2019-03-23T14:37:41.241Z,13.67
2019-03-23T14:40:49.398Z,14.20
2019-03-23T14:43:57.936Z,14.67
2019-03-23T14:47:06.429Z,15.13
2019-03-23T14:50:15.323Z,15.07
2019-03-23T14:53:24.524Z,15.80
2019-03-23T14:56:33.320Z,15.63
2019-03-23T14:59:41.715Z,14.50
2019-03-23T15:02:50.340Z,15.00
2019-03-23T15:05:58.573Z,15.77
2019-03-23T15:09:07.880Z,14.67
2019-03-23T15:12:16.948Z,15.40
2019-03-23T15:15:25.363Z,15.60
2019-03-23T15:18:33.944Z,14.63
2019-03-23T15:21:42.427Z,16.10
2019-03-23T15:24:50.585Z,14.93
2019-03-23T15:27:58.698Z,15.27
2019-03-23T15:31:10.434Z,15.50
2019-03-23T15:34:19.337Z,15.63
2019-03-23T15:37:27.431Z,16.17
2019-03-23T15:40:36.401Z,15.70
2019-03-23T15:43:44.899Z,15.53
2019-03-23T15:46:53.341Z,16.17
2019-03-23T15:50:01.588Z,16.23
2019-03-23T15:53:09.839Z,16.30
2019-03-23T15:56:17.858Z,16.17
2019-03-23T15:59:26.287Z,17.13
2019-03-23T16:02:34.580Z,16.60
2019-03-23T16:05:42.867Z,17.23
2019-03-23T16:08:51.026Z,17.27
2019-03-23T16:11:59.980Z,17.93
2019-03-23T16:15:09.873Z,17.33
2019-03-23T16:18:18.095Z,17.53
2019-03-23T16:21:26.610Z,19.07
2019-03-23T16:24:34.849Z,16.93
2019-03-23T16:27:43.343Z,17.47
2019-03-23T16:30:51.532Z,16.10
2019-03-23T16:34:00.193Z,17.27
2019-03-23T16:37:08.903Z,17.63
2019-03-23T16:40:17.557Z,17.57
2019-03-23T16:43:26.119Z,16.60
2019-03-23T16:46:34.485Z,16.70
2019-03-23T16:49:42.851Z,16.63
2019-03-23T16:52:51.109Z,15.97
2019-03-23T16:55:59.661Z,16.97
2019-03-23T16:59:08.443Z,17.50
2019-03-23T17:02:16.634Z,16.00
2019-03-23T17:05:25.226Z,16.53
2019-03-23T17:08:33.627Z,16.27
2019-03-23T17:11:41.816Z,16.20
2019-03-23T17:14:50.019Z,17.90
2019-03-23T17:17:58.035Z,17.10
2019-03-23T17:21:06.240Z,15.80
2019-03-23T17:24:14.450Z,15.47
2019-03-23T17:27:22.777Z,14.37
2019-03-23T17:30:31.491Z,14.17
2019-03-23T17:33:39.944Z,15.60
2019-03-23T17:36:48.161Z,14.60
2019-03-23T17:39:56.349Z,15.07
2019-03-23T17:43:06.226Z,20.97
2019-03-23T17:46:14.407Z,32.83
2019-03-23T17:49:22.716Z,26.53
2019-03-23T17:52:31.660Z,24.90
2019-03-23T17:55:40.300Z,22.10
2019-03-23T17:58:49.420Z,20.47
2019-03-23T18:01:58.653Z,19.47
2019-03-23T18:05:07.924Z,16.40
2019-03-23T18:08:16.604Z,16.10
2019-03-23T18:11:25.141Z,16.33
2019-03-23T18:14:33.570Z,15.47
2019-03-23T18:17:41.910Z,16.37
2019-03-23T18:20:50.168Z,14.87
2019-03-23T18:23:58.702Z,15.33
2019-03-23T18:27:06.880Z,14.77
2019-03-23T18:30:38.926Z,14.43
2019-03-23T18:33:47.430Z,15.63
2019-03-23T18:36:57.054Z,14.17
2019-03-23T18:40:08.175Z,14.73
2019-03-23T18:43:26.704Z,14.20
2019-03-23T18:46:26.624Z,14.73
2019-03-23T18:49:35.234Z,13.10
2019-03-23T18:52:43.759Z,14.57
2019-03-23T18:55:52.366Z,13.57
2019-03-23T18:59:01.837Z,14.07
2019-03-23T19:02:10.534Z,14.63
2019-03-23T19:05:19.256Z,14.50
2019-03-23T19:08:27.979Z,14.43
2019-03-23T19:11:36.416Z,13.70
2019-03-23T19:14:45.014Z,13.57
2019-03-23T19:17:53.340Z,14.00
2019-03-23T19:21:02.429Z,13.53
2019-03-23T19:24:11.027Z,11.93
2019-03-23T19:27:19.581Z,14.63
2019-03-23T19:30:28.308Z,17.97
2019-03-23T19:33:36.629Z,20.33
2019-03-23T19:36:44.738Z,18.53
2019-03-23T19:39:53.531Z,14.53
2019-03-23T19:43:01.988Z,13.67
2019-03-23T19:46:10.840Z,12.70
2019-03-23T19:49:19.207Z,13.37
2019-03-23T19:52:27.597Z,12.03
2019-03-23T19:55:36.389Z,11.67
2019-03-23T19:58:45.411Z,14.87
2019-03-23T20:01:53.888Z,16.00
2019-03-23T20:05:03.071Z,14.40
2019-03-23T20:08:12.083Z,13.80
2019-03-23T20:11:20.773Z,12.17
2019-03-23T20:14:29.746Z,14.90
2019-03-23T20:17:38.981Z,13.20
2019-03-23T20:20:47.679Z,16.27
2019-03-23T20:23:56.636Z,13.60
2019-03-23T20:27:05.056Z,12.90
2019-03-23T20:30:16.305Z,12.03
2019-03-23T20:33:24.700Z,12.07
2019-03-23T20:36:32.951Z,13.10
2019-03-23T20:39:41.845Z,11.43
2019-03-23T20:42:50.613Z,11.10
2019-03-23T20:45:59.672Z,11.50
2019-03-23T20:49:08.003Z,11.47
2019-03-23T20:52:16.761Z,10.57
2019-03-23T20:55:30.130Z,11.30
2019-03-23T20:58:38.699Z,11.07
2019-03-23T21:01:47.639Z,11.30
2019-03-23T21:04:56.192Z,11.10
2019-03-23T21:08:05.171Z,10.97
2019-03-23T21:11:13.858Z,10.43
2019-03-23T21:14:22.495Z,11.87
2019-03-23T21:17:30.957Z,10.47
2019-03-23T21:20:39.372Z,10.30
2019-03-23T21:23:48.250Z,9.77
2019-03-23T21:26:56.812Z,9.60
2019-03-23T21:30:08.911Z,11.70
2019-03-23T21:33:17.539Z,12.33
2019-03-23T21:36:26.902Z,11.13
2019-03-23T21:39:35.048Z,12.00
2019-03-23T21:42:43.373Z,12.60
2019-03-23T21:45:51.863Z,12.13
2019-03-23T21:49:03.050Z,12.27
2019-03-23T21:52:12.149Z,12.90
2019-03-23T21:55:20.523Z,12.43
2019-03-23T21:58:29.218Z,11.60
2019-03-23T22:01:37.597Z,12.27
2019-03-23T22:04:46.267Z,11.60
2019-03-23T22:07:55.085Z,12.57
2019-03-23T22:11:03.700Z,11.63
2019-03-23T22:14:12.027Z,11.57
2019-03-23T22:17:20.330Z,11.87
2019-03-23T22:20:31.756Z,12.13
2019-03-23T22:23:41.956Z,12.57
2019-03-23T22:26:50.887Z,12.67
2019-03-23T22:29:59.342Z,13.17
2019-03-23T22:33:10.817Z,12.30
2019-03-23T22:36:19.140Z,13.17
2019-03-23T22:39:27.668Z,12.47
2019-03-23T22:42:36.608Z,12.40
2019-03-23T22:45:45.399Z,12.10
2019-03-23T22:48:56.003Z,13.43
2019-03-23T22:52:05.003Z,12.23
2019-03-23T22:55:13.217Z,14.00
2019-03-23T22:58:21.798Z,12.90
2019-03-23T23:01:30.111Z,12.17
2019-03-23T23:04:38.679Z,12.40
2019-03-23T23:07:47.165Z,12.60
2019-03-23T23:10:56.190Z,12.87
2019-03-23T23:14:04.898Z,11.67
2019-03-23T23:17:13.460Z,11.63
2019-03-23T23:20:21.956Z,13.47
2019-03-23T23:23:30.792Z,12.17
2019-03-23T23:26:39.147Z,12.60
2019-03-23T23:29:47.547Z,12.50
2019-03-23T23:32:56.088Z,12.97
2019-03-23T23:36:04.801Z,11.80
2019-03-23T23:39:13.140Z,11.83
2019-03-23T23:42:21.391Z,12.53
2019-03-23T23:45:29.614Z,11.43
2019-03-23T23:48:37.754Z,11.27
2019-03-23T23:51:50.069Z,11.87
2019-03-23T23:54:56.145Z,12.23
2019-03-23T23:58:05.167Z,13.30
